Bolingbroke, Georgia
Current Conditions -  °F | °C
As of 10:53 PM on Wednesday 26 Nov 2014 (Local Time) from KMCN Reporting Station
Clear Clear  
Wind Chill: 44°   Ceiling: Unl
Heat Index: 44°   Visibility: 10mi
Dew Point: 30°   Wind: 3mph
Humidity: 58%   Direction: 200°SSW
Pressure: 30.11"   Gusts: NA
Location:  32.95°N, 83.8°W
Report Text: KMCN 270353Z AUTO 20003KT 10SM CLR 07/M01 A3011 RMK AO2 SLP196 T00671011 TSNO
Loading
Personal Weather Stations






























Interactive Weather Map New forecast layout! Learn more

10-Day Weather Forecast

Advertisements
Track Severe Weather on mobile